Terminal Aerodrome Forecast
Issued by NWS

Current Version | Previous Version | Text Only | Print | Product List | Glossary On
Versions: 1 2 3 4 5 6 7 8 9 10 11 12 13 14 15
000
FTUS41 KPBZ 251720
TAFFKL
TAF
KFKL 251720Z 2518/2618 33004KT 4SM -RA BR BKN006
     FM251900 31008KT P6SM OVC008
     FM261000 29009KT P6SM BKN015
     FM261400 29006KT P6SM BKN025=

USA.gov is the U.S. government's official web portal to all federal, state and local government web resources and services.